createdAt,value
2023-03-10T00:01:56.346Z,70.01
2023-03-10T00:07:12.007Z,70.00
2023-03-10T00:09:41.899Z,70.08
2023-03-10T00:12:30.230Z,70.17
2023-03-10T00:15:18.276Z,70.28
2023-03-10T00:17:48.504Z,70.42
2023-03-10T00:20:19.297Z,70.40
2023-03-10T00:23:07.277Z,70.55
2023-03-10T00:25:37.302Z,70.40
2023-03-10T00:28:07.157Z,70.10
2023-03-10T00:33:22.923Z,70.32
2023-03-10T00:36:13.742Z,70.34
2023-03-10T00:38:45.811Z,70.31
2023-03-10T00:41:21.348Z,70.18
2023-03-10T00:43:52.049Z,70.62
2023-03-10T00:46:22.652Z,70.42
2023-03-10T00:48:53.028Z,70.40
2023-03-10T00:51:24.161Z,70.24
2023-03-10T00:53:54.510Z,70.60
2023-03-10T00:56:27.427Z,70.46
2023-03-10T00:59:00.616Z,70.32
2023-03-10T01:01:34.819Z,70.64
2023-03-10T01:04:11.614Z,70.64
2023-03-10T01:06:41.883Z,70.48
2023-03-10T01:09:11.785Z,70.46
2023-03-10T01:11:42.228Z,70.39
2023-03-10T01:14:15.524Z,70.36
2023-03-10T01:16:45.818Z,70.44
2023-03-10T01:19:17.213Z,70.43
2023-03-10T01:21:47.296Z,70.53
2023-03-10T01:24:18.530Z,70.52
2023-03-10T01:26:48.656Z,70.65
2023-03-10T01:29:18.862Z,70.50
2023-03-10T01:31:48.982Z,70.38
2023-03-10T01:34:19.051Z,70.34
2023-03-10T01:36:49.790Z,70.57
2023-03-10T01:39:19.853Z,70.49
2023-03-10T01:41:49.696Z,70.45
2023-03-10T01:44:25.009Z,70.23
2023-03-10T01:46:58.108Z,70.09
2023-03-10T01:49:46.954Z,70.23
2023-03-10T01:52:26.015Z,69.98
2023-03-10T01:55:09.478Z,70.11
2023-03-10T01:57:48.491Z,70.08
2023-03-10T02:00:37.657Z,70.29
2023-03-10T02:03:19.323Z,70.01
2023-03-10T02:05:58.422Z,70.19
2023-03-10T02:08:33.489Z,70.19
2023-03-10T02:11:04.495Z,70.28
2023-03-10T02:13:34.563Z,70.35
2023-03-10T02:16:04.799Z,69.96
2023-03-10T02:18:35.201Z,70.40
2023-03-10T02:21:16.977Z,70.15
2023-03-10T02:24:14.142Z,69.94
2023-03-10T02:26:53.867Z,69.96
2023-03-10T02:29:58.363Z,70.19
2023-03-10T02:32:33.238Z,69.99
2023-03-10T02:35:04.254Z,70.10
2023-03-10T02:37:55.130Z,70.06
2023-03-10T02:40:40.204Z,69.94
2023-03-10T02:43:34.031Z,70.00
2023-03-10T02:46:11.954Z,69.68
2023-03-10T02:48:45.633Z,69.79
2023-03-10T02:51:37.235Z,69.80
2023-03-10T02:54:12.865Z,69.69
2023-03-10T02:56:45.040Z,69.73
2023-03-10T02:59:33.094Z,69.63
2023-03-10T03:02:03.469Z,69.24
2023-03-10T03:04:51.723Z,68.90
2023-03-10T03:07:21.913Z,68.94
2023-03-10T03:09:51.906Z,68.93
2023-03-10T03:12:21.759Z,68.69
2023-03-10T03:14:52.033Z,68.51
2023-03-10T03:17:40.285Z,68.49
2023-03-10T03:20:16.533Z,68.10
2023-03-10T03:23:04.911Z,67.86
2023-03-10T03:25:37.496Z,67.85
2023-03-10T03:28:10.219Z,67.86
2023-03-10T03:30:58.404Z,67.90
2023-03-10T03:33:47.205Z,67.70
2023-03-10T03:36:36.355Z,67.57
2023-03-10T03:39:10.843Z,67.51
2023-03-10T03:41:42.819Z,67.34
2023-03-10T03:44:13.528Z,67.14
2023-03-10T03:46:43.988Z,66.94
2023-03-10T03:49:32.165Z,66.77
2023-03-10T03:52:02.232Z,66.94
2023-03-10T03:54:32.618Z,66.55
2023-03-10T03:57:02.889Z,66.52
2023-03-10T04:02:19.577Z,66.51
2023-03-10T04:04:49.730Z,66.38
2023-03-10T04:07:20.178Z,66.06
2023-03-10T04:09:50.652Z,66.13
2023-03-10T04:12:20.806Z,66.04
2023-03-10T04:14:50.756Z,65.54
2023-03-10T04:17:20.993Z,65.83
2023-03-10T04:20:11.094Z,65.66
2023-03-10T04:22:44.698Z,65.42
2023-03-10T04:25:15.673Z,65.03
2023-03-10T04:28:04.954Z,65.13
2023-03-10T04:30:53.823Z,65.11
2023-03-10T04:33:46.956Z,64.56
2023-03-10T04:36:18.076Z,64.99
2023-03-10T04:39:07.332Z,64.95
2023-03-10T04:41:37.474Z,64.84
2023-03-10T04:44:09.503Z,64.37
2023-03-10T04:47:04.091Z,64.67
2023-03-10T04:49:35.132Z,63.64
2023-03-10T04:52:05.660Z,63.63
2023-03-10T04:57:21.609Z,64.59
2023-03-10T04:59:52.092Z,63.85
2023-03-10T05:02:22.421Z,63.50
2023-03-10T05:05:11.960Z,63.32
2023-03-10T05:07:45.557Z,63.33
2023-03-10T05:10:15.837Z,63.31
2023-03-10T05:12:45.838Z,63.77
2023-03-10T05:15:16.198Z,63.38
2023-03-10T05:18:04.321Z,63.47
2023-03-10T05:20:34.613Z,62.90
2023-03-10T05:23:05.023Z,62.66
2023-03-10T05:25:35.647Z,62.82
2023-03-10T05:28:06.090Z,62.75
2023-03-10T05:33:22.514Z,61.93
2023-03-10T05:36:13.531Z,62.27
2023-03-10T05:38:46.126Z,61.61
2023-03-10T05:41:18.479Z,61.57
2023-03-10T05:43:52.300Z,61.37
2023-03-10T05:46:23.572Z,61.40
2023-03-10T05:49:12.092Z,61.49
2023-03-10T05:51:42.449Z,60.64
2023-03-10T05:54:13.990Z,60.58
2023-03-10T05:56:44.753Z,61.47
2023-03-10T05:59:14.753Z,61.47
2023-03-10T06:01:44.847Z,61.17
2023-03-10T06:04:15.142Z,60.97
2023-03-10T06:06:45.221Z,61.02
2023-03-10T06:09:15.084Z,60.81
2023-03-10T06:11:45.224Z,61.31
2023-03-10T06:14:15.174Z,61.31
2023-03-10T06:16:46.999Z,60.89
2023-03-10T06:19:17.091Z,60.93
2023-03-10T06:22:05.280Z,61.20
2023-03-10T06:27:20.801Z,60.26
2023-03-10T06:29:51.868Z,60.54
2023-03-10T06:32:40.761Z,60.49
2023-03-10T06:35:29.344Z,60.53
2023-03-10T06:38:17.809Z,60.70
2023-03-10T06:41:06.340Z,59.47
2023-03-10T06:44:03.710Z,59.43
2023-03-10T06:46:51.951Z,59.82
2023-03-10T06:49:21.995Z,58.98
2023-03-10T06:51:51.861Z,58.95
2023-03-10T06:54:21.720Z,59.28
2023-03-10T06:56:52.502Z,59.71
2023-03-10T06:59:22.606Z,59.77
2023-03-10T07:01:52.509Z,59.43
2023-03-10T07:04:22.465Z,59.11
2023-03-10T07:06:52.438Z,59.56
2023-03-10T07:09:22.514Z,59.37
2023-03-10T07:11:52.582Z,59.18
2023-03-10T07:14:22.472Z,59.01
2023-03-10T07:16:52.448Z,58.92
2023-03-10T07:22:09.120Z,59.08
2023-03-10T07:24:40.394Z,59.00
2023-03-10T07:27:10.307Z,58.89
2023-03-10T07:29:40.355Z,58.65
2023-03-10T07:32:10.549Z,59.02
2023-03-10T07:34:40.736Z,58.22
2023-03-10T07:37:11.791Z,58.33
2023-03-10T07:39:41.929Z,57.82
2023-03-10T07:42:11.860Z,57.57
2023-03-10T07:44:41.915Z,57.92
2023-03-10T07:47:11.869Z,58.10
2023-03-10T07:49:41.985Z,58.03
2023-03-10T07:52:11.897Z,57.92
2023-03-10T07:54:42.020Z,57.61
2023-03-10T07:57:12.084Z,57.93
2023-03-10T07:59:42.989Z,58.07
2023-03-10T08:02:15.819Z,57.55
2023-03-10T08:04:45.926Z,56.96
2023-03-10T08:07:16.107Z,57.17
2023-03-10T08:09:51.284Z,57.09
2023-03-10T08:12:23.235Z,57.38
2023-03-10T08:15:13.200Z,57.13
2023-03-10T08:17:43.345Z,56.84
2023-03-10T08:20:14.013Z,57.16
2023-03-10T08:23:01.972Z,57.17
2023-03-10T08:25:32.084Z,56.75
2023-03-10T08:28:02.027Z,57.19
2023-03-10T08:30:32.084Z,57.46
2023-03-10T08:33:02.057Z,57.34
2023-03-10T08:35:50.541Z,56.96
2023-03-10T08:38:39.006Z,57.27
2023-03-10T08:41:37.457Z,56.27
2023-03-10T08:44:09.017Z,55.90
2023-03-10T08:46:39.224Z,56.96
2023-03-10T08:49:09.420Z,55.87
2023-03-10T08:51:39.657Z,56.14
2023-03-10T08:54:11.254Z,56.26
2023-03-10T08:56:41.799Z,56.60
2023-03-10T08:59:12.054Z,56.26
2023-03-10T09:01:42.764Z,56.37
2023-03-10T09:04:13.293Z,56.34
2023-03-10T09:06:43.840Z,56.16
2023-03-10T09:09:15.752Z,55.80
2023-03-10T09:11:46.557Z,55.77
2023-03-10T09:14:19.061Z,56.01
2023-03-10T09:16:49.239Z,55.97
2023-03-10T09:19:19.124Z,56.03
2023-03-10T09:21:49.940Z,56.26
2023-03-10T09:24:21.605Z,56.64
2023-03-10T09:26:51.731Z,56.07
2023-03-10T09:29:27.081Z,56.02
2023-03-10T09:32:08.596Z,56.01
2023-03-10T09:34:38.775Z,56.15
2023-03-10T09:37:08.836Z,56.16
2023-03-10T09:39:38.785Z,56.11
2023-03-10T09:42:37.943Z,56.13
2023-03-10T09:45:30.271Z,56.13
2023-03-10T09:48:26.438Z,56.04
2023-03-10T09:50:58.837Z,56.16
2023-03-10T09:53:48.609Z,56.09
2023-03-10T09:56:30.048Z,55.90
2023-03-10T09:59:02.390Z,56.07
2023-03-10T10:01:35.418Z,55.88
2023-03-10T10:04:28.040Z,56.06
2023-03-10T10:07:01.029Z,55.74
2023-03-10T10:10:08.131Z,55.81
2023-03-10T10:12:38.638Z,55.85
2023-03-10T10:15:21.283Z,55.65
2023-03-10T10:18:40.462Z,55.87
2023-03-10T10:24:07.134Z,55.99
2023-03-10T10:26:37.208Z,56.04
2023-03-10T10:29:21.076Z,55.79
2023-03-10T10:32:15.253Z,55.82
2023-03-10T10:34:48.145Z,55.74
2023-03-10T10:37:29.505Z,55.40
2023-03-10T10:40:00.069Z,55.70
2023-03-10T10:45:42.525Z,55.69
2023-03-10T10:48:39.117Z,56.05
2023-03-10T10:51:31.092Z,55.89
2023-03-10T10:54:04.044Z,55.92
2023-03-10T10:56:34.465Z,56.08
2023-03-10T10:59:22.810Z,55.86
2023-03-10T11:02:35.846Z,55.86
2023-03-10T11:05:14.982Z,55.94
2023-03-10T11:07:46.217Z,55.55
2023-03-10T11:10:19.933Z,55.79
2023-03-10T11:13:07.842Z,55.84
2023-03-10T11:15:44.166Z,56.00
2023-03-10T11:18:29.220Z,55.97
2023-03-10T11:21:16.010Z,55.94
2023-03-10T11:24:36.428Z,56.10
2023-03-10T11:27:39.706Z,56.21
2023-03-10T11:30:18.947Z,56.10
2023-03-10T11:33:13.384Z,56.29
2023-03-10T11:35:50.211Z,55.97
2023-03-10T11:38:47.266Z,56.21
2023-03-10T11:41:23.935Z,55.91
2023-03-10T11:44:21.856Z,56.21
2023-03-10T11:47:09.083Z,56.50
2023-03-10T11:49:42.375Z,56.61
2023-03-10T11:52:33.375Z,56.92
2023-03-10T11:55:09.388Z,57.07
2023-03-10T11:57:47.883Z,57.45
2023-03-10T12:00:43.896Z,57.57
2023-03-10T12:03:23.882Z,57.56
2023-03-10T12:06:26.726Z,58.11
2023-03-10T12:08:58.892Z,58.01
2023-03-10T12:11:31.466Z,58.21
2023-03-10T12:14:03.923Z,57.91
2023-03-10T12:16:38.991Z,58.20
2023-03-10T12:19:09.344Z,58.25
2023-03-10T12:21:39.550Z,58.37
2023-03-10T12:24:47.137Z,58.59
2023-03-10T12:27:17.231Z,58.65
2023-03-10T12:29:47.607Z,58.68
2023-03-10T12:32:49.335Z,58.55
2023-03-10T12:35:31.711Z,58.70
2023-03-10T12:38:40.468Z,58.85
2023-03-10T12:41:11.225Z,58.76
2023-03-10T12:43:41.621Z,58.79
2023-03-10T12:46:15.255Z,59.03
2023-03-10T12:48:54.209Z,58.98
2023-03-10T12:51:31.283Z,58.92
2023-03-10T12:54:08.358Z,58.92
2023-03-10T12:56:42.374Z,58.96
2023-03-10T12:59:36.125Z,58.93
2023-03-10T13:02:14.965Z,59.04
2023-03-10T13:04:45.670Z,59.16
2023-03-10T13:07:20.239Z,59.08
2023-03-10T13:09:52.282Z,59.15
2023-03-10T13:12:27.743Z,59.00
2023-03-10T13:15:00.735Z,59.21
2023-03-10T13:17:48.882Z,59.25
2023-03-10T13:20:20.252Z,59.15
2023-03-10T13:23:00.460Z,59.17
2023-03-10T13:25:30.699Z,59.47
2023-03-10T13:28:00.586Z,59.37
2023-03-10T13:30:30.602Z,59.19
2023-03-10T13:33:04.714Z,59.19
2023-03-10T14:10:30.592Z,66.33
2023-03-10T14:13:01.245Z,66.47
2023-03-10T14:15:40.393Z,66.43
2023-03-10T14:18:10.625Z,66.22
2023-03-10T14:20:45.424Z,66.28
2023-03-10T14:23:21.612Z,66.23
2023-03-10T14:25:56.788Z,66.18
2023-03-10T14:28:30.240Z,66.62
2023-03-10T14:31:02.106Z,66.91
2023-03-10T14:33:32.891Z,66.46
2023-03-10T14:36:03.246Z,66.62
2023-03-10T14:38:33.667Z,66.65
2023-03-10T14:41:03.894Z,66.46
2023-03-10T14:43:35.218Z,66.36
2023-03-10T14:46:07.457Z,66.47
2023-03-10T14:48:42.162Z,66.54
2023-03-10T14:51:28.938Z,66.49
2023-03-10T14:54:02.997Z,66.58
2023-03-10T14:56:34.434Z,66.24
2023-03-10T14:59:04.671Z,66.30
2023-03-10T15:01:35.043Z,66.73
2023-03-10T15:04:05.430Z,66.35
2023-03-10T15:06:35.564Z,65.90
2023-03-10T15:09:05.592Z,65.75
2023-03-10T15:11:37.562Z,65.78
2023-03-10T15:14:20.195Z,65.70
2023-03-10T15:16:50.468Z,65.91
2023-03-10T15:19:27.770Z,65.91
2023-03-10T15:21:59.903Z,65.66
2023-03-10T15:24:48.244Z,66.10
2023-03-10T15:27:18.396Z,65.86
2023-03-10T15:29:48.424Z,65.96
2023-03-10T15:32:18.449Z,66.19
2023-03-10T15:34:48.574Z,66.32
2023-03-10T15:37:18.827Z,66.35
2023-03-10T15:39:49.027Z,66.26
2023-03-10T15:42:18.990Z,67.97
2023-03-10T15:44:51.864Z,67.95
2023-03-10T15:47:22.145Z,68.14
2023-03-10T15:49:52.224Z,67.60
2023-03-10T15:52:22.802Z,67.61
2023-03-10T15:54:53.343Z,67.71
2023-03-10T15:57:23.940Z,67.77
2023-03-10T15:59:54.281Z,67.81
2023-03-10T16:02:25.111Z,67.79
2023-03-10T16:04:55.298Z,68.07
2023-03-10T16:07:25.467Z,68.17
2023-03-10T16:09:55.672Z,68.33
2023-03-10T16:12:25.698Z,68.12
2023-03-10T16:14:57.695Z,68.36
2023-03-10T16:17:27.994Z,68.41
2023-03-10T16:19:58.353Z,68.44
2023-03-10T16:22:28.663Z,68.39
2023-03-10T16:24:58.712Z,68.49
2023-03-10T16:27:28.685Z,68.52
2023-03-10T16:29:58.716Z,69.14
2023-03-10T16:32:28.753Z,69.13
2023-03-10T16:35:03.592Z,69.39
2023-03-10T16:37:33.825Z,69.48
2023-03-10T16:40:04.319Z,69.19
2023-03-10T16:42:38.886Z,69.38
2023-03-10T16:45:09.843Z,69.15
2023-03-10T16:47:40.289Z,69.36
2023-03-10T16:50:11.095Z,69.39
2023-03-10T16:52:44.470Z,69.14
2023-03-10T16:55:19.361Z,69.19
2023-03-10T16:57:52.451Z,69.28
2023-03-10T17:00:25.172Z,69.17
2023-03-10T17:02:55.254Z,68.97
2023-03-10T17:05:25.918Z,69.02
2023-03-10T17:07:56.480Z,69.02
2023-03-10T17:13:14.324Z,68.74
2023-03-10T17:15:44.265Z,68.87
2023-03-10T17:18:14.286Z,69.23
2023-03-10T17:20:44.277Z,68.79
2023-03-10T17:23:14.383Z,68.54
2023-03-10T17:25:48.282Z,68.87
2023-03-10T17:28:18.402Z,68.58
2023-03-10T17:30:48.752Z,68.47
2023-03-10T17:33:19.340Z,68.49
2023-03-10T17:35:49.535Z,68.58
2023-03-10T17:38:19.678Z,68.47
2023-03-10T17:40:49.588Z,68.61
2023-03-10T17:43:33.444Z,68.51
2023-03-10T17:46:07.309Z,68.46
2023-03-10T17:48:58.101Z,68.90
2023-03-10T17:51:31.269Z,68.80
2023-03-10T17:54:03.976Z,68.89
2023-03-10T17:56:34.120Z,69.03
2023-03-10T17:59:04.038Z,68.77
2023-03-10T18:01:34.220Z,69.01
2023-03-10T18:04:05.687Z,69.30
2023-03-10T18:09:23.498Z,69.53
2023-03-10T18:11:53.664Z,69.44
2023-03-10T18:14:23.577Z,69.66
2023-03-10T18:16:53.634Z,69.88
2023-03-10T18:19:23.903Z,69.75
2023-03-10T18:21:54.760Z,69.82
2023-03-10T18:24:24.997Z,70.08
2023-03-10T18:26:55.077Z,69.92
2023-03-10T18:29:25.174Z,69.89
2023-03-10T18:31:55.366Z,69.70
2023-03-10T18:34:25.385Z,70.29
2023-03-10T18:36:55.311Z,70.11
2023-03-10T18:39:25.589Z,69.90
2023-03-10T18:41:58.554Z,70.17
2023-03-10T18:44:29.863Z,70.27
2023-03-10T18:46:59.674Z,69.91
2023-03-10T18:49:29.500Z,70.26
2023-03-10T18:51:59.483Z,70.22
2023-03-10T18:54:29.505Z,70.24
2023-03-10T18:57:04.083Z,70.34
2023-03-10T18:59:34.522Z,70.45
2023-03-10T19:02:04.716Z,70.42
2023-03-10T19:04:35.011Z,70.01
2023-03-10T19:07:08.422Z,70.13
2023-03-10T19:09:38.470Z,70.32
2023-03-10T19:12:08.989Z,70.23
2023-03-10T19:14:39.261Z,70.42
2023-03-10T19:17:09.170Z,70.21
2023-03-10T19:19:39.317Z,70.16
2023-03-10T19:22:09.328Z,70.05
2023-03-10T19:24:39.489Z,69.93
2023-03-10T19:27:09.588Z,70.23
2023-03-10T19:29:39.598Z,70.37
2023-03-10T19:32:30.002Z,70.47
2023-03-10T19:35:00.020Z,70.24
2023-03-10T19:37:32.355Z,70.31
2023-03-10T19:40:02.619Z,70.50
2023-03-10T19:42:32.688Z,70.59
2023-03-10T19:45:02.874Z,70.72
2023-03-10T19:47:33.839Z,70.40
2023-03-10T19:50:04.095Z,70.55
2023-03-10T19:52:34.702Z,70.38
2023-03-10T19:55:04.825Z,70.59
2023-03-10T19:57:36.837Z,70.31
2023-03-10T20:00:09.568Z,70.44
2023-03-10T20:02:41.348Z,70.40
2023-03-10T20:05:15.698Z,70.33
2023-03-10T20:07:48.905Z,70.50
2023-03-10T20:10:20.283Z,70.41
2023-03-10T20:12:53.396Z,70.17
2023-03-10T20:15:23.470Z,70.28
2023-03-10T20:17:53.468Z,70.31
2023-03-10T20:20:23.716Z,70.45
2023-03-10T20:22:53.873Z,70.66
2023-03-10T20:25:26.208Z,70.60
2023-03-10T20:27:57.158Z,70.35
2023-03-10T20:30:30.231Z,70.62
2023-03-10T20:33:02.081Z,70.33
2023-03-10T20:35:34.819Z,70.64
2023-03-10T20:38:07.653Z,70.57
2023-03-10T20:40:40.585Z,70.67
2023-03-10T20:43:11.964Z,70.19
2023-03-10T20:45:42.938Z,70.52
2023-03-10T20:48:13.245Z,70.42
2023-03-10T20:50:43.506Z,70.70
2023-03-10T20:53:13.560Z,70.62
2023-03-10T20:55:44.391Z,70.51
2023-03-10T20:58:14.671Z,70.65
2023-03-10T21:00:51.508Z,70.76
2023-03-10T21:03:23.601Z,70.45
2023-03-10T21:05:54.102Z,71.05
2023-03-10T21:08:24.101Z,70.98
2023-03-10T21:10:54.436Z,70.95
2023-03-10T21:13:24.795Z,70.76
2023-03-10T21:15:55.477Z,70.80
2023-03-10T21:18:25.632Z,70.74
2023-03-10T21:20:55.576Z,70.54
2023-03-10T21:23:25.910Z,70.51
2023-03-10T21:25:55.912Z,70.58
2023-03-10T21:28:25.755Z,70.55
2023-03-10T21:30:55.843Z,70.47
2023-03-10T21:33:25.914Z,70.39
2023-03-10T21:35:56.391Z,70.58
2023-03-10T21:38:26.375Z,70.65
2023-03-10T21:40:56.464Z,70.47
2023-03-10T21:43:29.359Z,70.72
2023-03-10T21:45:59.473Z,70.38
2023-03-10T21:48:29.907Z,70.70
2023-03-10T21:50:59.998Z,70.54
2023-03-10T21:53:30.064Z,70.72
2023-03-10T21:56:00.463Z,70.77
2023-03-10T21:58:30.750Z,70.39
2023-03-10T22:03:46.662Z,70.56
2023-03-10T22:06:16.956Z,70.29
2023-03-10T22:08:47.096Z,70.34
2023-03-10T22:11:18.905Z,70.37
2023-03-10T22:13:49.129Z,70.16
2023-03-10T22:16:20.400Z,70.45
2023-03-10T22:18:51.569Z,70.36
2023-03-10T22:21:22.027Z,70.21
2023-03-10T22:23:52.214Z,70.42
2023-03-10T22:26:22.510Z,69.79
2023-03-10T22:28:52.553Z,70.37
2023-03-10T22:31:24.389Z,70.41
2023-03-10T22:33:54.473Z,70.14
2023-03-10T22:36:24.412Z,70.03
2023-03-10T22:38:54.456Z,70.08
2023-03-10T22:41:24.345Z,70.03
2023-03-10T22:43:54.823Z,70.13
2023-03-10T22:46:25.598Z,70.33
2023-03-10T22:48:55.634Z,70.30
2023-03-10T22:51:26.062Z,70.23
2023-03-10T22:53:56.296Z,70.50
2023-03-10T22:56:26.202Z,70.27
2023-03-10T22:58:56.382Z,70.57
2023-03-10T23:01:26.564Z,70.39
2023-03-10T23:03:56.732Z,70.16
2023-03-10T23:06:30.864Z,70.21
2023-03-10T23:09:00.986Z,70.57
2023-03-10T23:11:31.064Z,70.31
2023-03-10T23:14:05.742Z,70.64
2023-03-10T23:16:38.483Z,70.24
2023-03-10T23:19:10.060Z,70.53
2023-03-10T23:21:40.270Z,70.44
2023-03-10T23:24:10.363Z,70.62
2023-03-10T23:26:40.211Z,70.21
2023-03-10T23:29:10.350Z,70.39
2023-03-10T23:31:40.428Z,70.67
2023-03-10T23:34:10.458Z,70.40
2023-03-10T23:36:40.426Z,70.54
2023-03-10T23:39:13.345Z,69.96
2023-03-10T23:41:43.494Z,70.18
2023-03-10T23:44:13.501Z,70.13
2023-03-10T23:46:43.429Z,69.87
2023-03-10T23:49:13.306Z,70.02
2023-03-10T23:51:43.223Z,70.00
2023-03-10T23:54:14.215Z,70.01
2023-03-10T23:56:44.252Z,70.10
2023-03-10T23:59:14.085Z,70.30
